Time;durP1;ratioP1;P1;durP2;ratioP2;P2;SDS_P1;SDS_P2;PMS_P1;PMS_P2;Temp;Humidity;BMP_temperature;BMP_pressure;BME280_temperature;BME280_humidity;BME280_pressure;Samples;Min_cycle;Max_cycle;Signal;HPM_P1;HPM_P2
2021/07/15 00:01:26;;;;;;;2.45;2.25;;;;;;;15.56;97.19;100371.66;5020660;28;20104;-88
2021/07/15 00:04:09;;;;;;;;;;;;;;;;;;;;;
2021/07/15 00:06:39;;;;;;;2.13;2.03;;;;;;;15.47;97.70;100378.09;5034126;28;20169;-87
2021/07/15 00:09:07;;;;;;;1.95;1.90;;;;;;;15.45;97.85;100390.50;5034144;28;20048;-88
2021/07/15 00:11:48;;;;;;;2.30;2.10;;;;;;;15.45;98.03;100390.50;5044305;28;20475;-86
2021/07/15 00:17:16;;;;;;;2.75;2.55;;;;;;;15.44;98.32;100401.94;5027428;28;20487;-89
2021/07/15 00:19:53;;;;;;;2.95;2.75;;;;;;;15.42;98.43;100419.59;5036436;28;20056;-86
2021/07/15 00:22:29;;;;;;;6.35;5.75;;;;;;;15.47;98.70;100425.56;5051931;28;20056;-87
2021/07/15 00:24:59;;;;;;;6.13;5.53;;;;;;;15.54;98.65;100431.53;5040284;28;20144;-86
2021/07/15 00:34:15;;;;;;;1.83;1.70;;;;;;;15.99;96.77;100445.88;5059568;28;20036;-87
2021/07/15 00:37:55;;;;;;;3.33;2.03;;;;;;;16.11;96.16;100449.88;5021440;28;20053;-86
2021/07/15 00:40:45;;;;;;;;;;;;;;;;;;;;;
2021/07/15 00:43:26;;;;;;;2.30;2.10;;;;;;;16.29;95.12;100457.13;5057637;28;20032;-88
2021/07/15 00:45:57;;;;;;;1.80;1.70;;;;;;;16.34;94.99;100452.53;5032476;28;20082;-89
2021/07/15 00:48:49;;;;;;;2.05;1.92;;;;;;;16.41;94.67;100460.25;5073803;28;20059;-89
2021/07/15 00:54:06;;;;;;;1.40;1.40;;;;;;;16.49;94.30;100477.56;5068235;28;20117;-87
2021/07/15 00:56:38;;;;;;;2.75;1.60;;;;;;;16.54;94.16;100478.25;5037761;28;20453;-88
2021/07/15 00:59:30;;;;;;;;;;;;;;;;;;;;;
2021/07/15 01:02:47;;;;;;;1.60;1.50;;;;;;;16.66;93.59;100470.78;5037249;28;20411;-87
2021/07/15 01:05:39;;;;;;;3.72;1.85;;;;;;;16.68;93.50;100475.09;5054388;28;20037;-87
2021/07/15 01:08:07;;;;;;;1.85;1.75;;;;;;;16.70;93.49;100470.63;5030042;28;20426;-87
2021/07/15 01:10:55;;;;;;;5.13;2.13;;;;;;;16.69;93.39;100492.66;5053223;28;20107;-88
2021/07/15 01:20:39;;;;;;;4.95;1.40;;;;;;;16.63;93.87;100515.81;5063268;28;20036;-86
2021/07/15 01:24:18;;;;;;;1.75;1.65;;;;;;;16.62;94.10;100506.16;4969888;28;20066;-87
2021/07/15 01:33:45;;;;;;;4.07;2.00;;;;;;;16.69;93.41;100468.03;5039289;28;20037;-87
2021/07/15 01:36:26;;;;;;;1.65;1.55;;;;;;;16.66;93.50;100466.38;5051201;28;20612;-88
2021/07/15 01:39:29;;;;;;;2.22;2.03;;;;;;;16.65;93.21;100463.78;5058047;28;20080;-87
2021/07/15 01:42:14;;;;;;;2.22;2.13;;;;;;;16.64;93.56;100462.06;5054753;28;20490;-86
2021/07/15 01:45:05;;;;;;;4.22;2.35;;;;;;;16.64;93.18;100451.47;5034875;28;20056;-88
2021/07/15 01:47:44;;;;;;;1.98;1.73;;;;;;;16.57;93.47;100436.75;5028031;28;20060;-88
2021/07/15 01:50:24;;;;;;;2.55;1.95;;;;;;;16.49;93.85;100431.75;5042253;28;20751;-89
2021/07/15 01:53:08;;;;;;;2.33;2.05;;;;;;;16.37;93.97;100430.44;5081327;28;20048;-89
2021/07/15 01:56:28;;;;;;;3.90;1.92;;;;;;;16.22;94.72;100434.50;5056801;28;20699;-89
2021/07/15 01:58:55;;;;;;;2.65;1.77;;;;;;;16.11;95.18;100434.03;5046592;28;20680;-88
2021/07/15 02:01:40;;;;;;;;;;;;;;;;;;;;;
2021/07/15 02:04:38;;;;;;;3.78;1.73;;;;;;;15.98;96.09;100437.13;5061599;28;20051;-86
2021/07/15 02:10:19;;;;;;;1.90;1.80;;;;;;;16.06;96.35;100428.03;5077594;22;20120;-89
2021/07/15 02:12:58;;;;;;;2.00;1.90;;;;;;;16.10;96.05;100430.53;5017782;28;20037;-87
2021/07/15 02:15:29;;;;;;;2.00;1.80;;;;;;;16.18;95.76;100436.41;5023450;28;20045;-89
2021/07/15 02:18:04;;;;;;;2.75;2.47;;;;;;;16.27;95.27;100439.59;5035682;28;20052;-88
2021/07/15 02:20:39;;;;;;;1.80;1.52;;;;;;;16.37;95.22;100446.28;5013622;28;20585;-88
2021/07/15 02:23:26;;;;;;;2.65;2.13;;;;;;;16.45;94.65;100444.25;5018603;28;20049;-87
2021/07/15 02:25:58;;;;;;;2.47;2.28;;;;;;;16.53;94.49;100454.50;5018674;28;20041;-89
2021/07/15 02:28:38;;;;;;;2.33;2.13;;;;;;;16.60;94.10;100447.25;5013071;28;20040;-88
2021/07/15 02:31:44;;;;;;;3.05;2.38;;;;;;;16.67;93.72;100456.63;5024940;28;20041;-87
2021/07/15 02:34:49;;;;;;;2.60;2.40;;;;;;;16.71;93.51;100460.88;5027099;28;20063;-87
2021/07/15 02:37:35;;;;;;;5.32;2.25;;;;;;;16.73;93.49;100472.28;5018416;28;20126;-87
2021/07/15 02:40:16;;;;;;;2.47;2.00;;;;;;;16.72;93.34;100475.84;5008934;28;20048;-88
2021/07/15 02:42:47;;;;;;;4.15;2.33;;;;;;;16.70;93.45;100482.97;5009302;28;20049;-89
2021/07/15 02:45:26;;;;;;;3.17;1.95;;;;;;;16.70;93.37;100489.13;5026225;28;20052;-90
2021/07/15 02:48:18;;;;;;;2.10;1.88;;;;;;;16.67;93.32;100485.72;5028179;28;20056;-89
2021/07/15 02:54:36;;;;;;;3.88;1.83;;;;;;;16.65;93.93;100493.72;4978766;28;20094;-89
2021/07/15 02:57:38;;;;;;;3.03;1.83;;;;;;;16.65;94.17;100499.00;5007305;28;20041;-88
2021/07/15 03:00:16;;;;;;;3.05;1.77;;;;;;;16.64;94.22;100494.63;5043002;28;20060;-89
2021/07/15 03:03:26;;;;;;;4.00;2.00;;;;;;;16.64;94.50;100484.03;5028195;28;20055;-89
2021/07/15 03:06:17;;;;;;;6.05;1.98;;;;;;;16.62;94.45;100492.94;5025585;28;20048;-87
2021/07/15 03:08:56;;;;;;;4.65;2.03;;;;;;;16.58;94.60;100497.47;5009783;28;20110;-89
2021/07/15 03:11:37;;;;;;;2.28;1.90;;;;;;;16.56;94.22;100503.75;5020519;28;20065;-90
2021/07/15 03:14:07;;;;;;;3.28;2.10;;;;;;;16.52;94.50;100498.56;5007772;28;20158;-90
2021/07/15 03:16:49;;;;;;;;;;;;;;;;;;;;;
2021/07/15 03:19:49;;;;;;;4.63;2.60;;;;;;;16.49;94.84;100485.47;5012630;28;20049;-89
2021/07/15 03:22:29;;;;;;;3.53;2.25;;;;;;;16.45;94.98;100481.25;5023931;28;20430;-90
2021/07/15 03:25:04;;;;;;;4.05;2.25;;;;;;;16.47;94.84;100476.75;5026598;28;20549;-89
2021/07/15 03:27:46;;;;;;;6.95;2.28;;;;;;;16.47;94.75;100484.66;5010231;28;20470;-90
2021/07/15 03:30:28;;;;;;;4.47;2.85;;;;;;;16.45;94.37;100478.59;5021464;28;20454;-88
2021/07/15 03:33:18;;;;;;;5.75;2.38;;;;;;;16.40;94.43;100482.28;5007753;28;20060;-89
2021/07/15 03:35:48;;;;;;;3.28;2.40;;;;;;;16.36;94.59;100477.13;5010500;28;20059;-89
2021/07/15 03:38:37;;;;;;;4.70;2.47;;;;;;;16.36;94.42;100482.41;5027213;28;20049;-89
2021/07/15 03:41:08;;;;;;;5.72;2.22;;;;;;;16.36;94.51;100481.53;5010516;28;20658;-90
2021/07/15 03:43:50;;;;;;;;;;;;;;;;;;;;;
2021/07/15 03:46:38;;;;;;;9.27;2.50;;;;;;;16.41;94.25;100476.09;5008843;28;20053;-89
2021/07/15 03:49:07;;;;;;;2.33;2.00;;;;;;;16.45;94.01;100464.50;5016780;28;20052;-91
2021/07/15 03:51:36;;;;;;;4.07;2.10;;;;;;;16.47;93.87;100465.31;5024626;28;20043;-91
2021/07/15 03:54:27;;;;;;;4.43;2.10;;;;;;;16.47;93.72;100466.16;5024145;28;20051;-89
2021/07/15 03:59:49;;;;;;;12.60;2.25;;;;;;;16.48;93.69;100483.75;5003726;28;20161;-89
2021/07/15 04:02:25;;;;;;;4.07;2.10;;;;;;;16.46;93.39;100490.00;5020962;28;20532;-89
2021/07/15 04:04:57;;;;;;;7.47;1.90;;;;;;;16.48;93.40;100485.53;5006003;28;20400;-88
2021/07/15 04:07:37;;;;;;;1.73;1.63;;;;;;;16.51;93.24;100483.63;5023423;28;20045;-89
2021/07/15 04:10:39;;;;;;;4.75;2.28;;;;;;;16.58;92.74;100502.75;5000877;28;20122;-90
2021/07/15 04:13:24;;;;;;;3.03;2.17;;;;;;;16.60;92.27;100508.03;5024480;28;20036;-90
2021/07/15 04:16:19;;;;;;;4.30;2.17;;;;;;;16.60;92.47;100510.66;5014670;28;20072;-90
2021/07/15 04:18:57;;;;;;;4.00;1.88;;;;;;;16.62;92.06;100520.25;5020997;28;20045;-90
2021/07/15 04:21:35;;;;;;;2.35;2.00;;;;;;;16.63;92.09;100523.75;5010328;28;20057;-89
2021/07/15 04:24:08;;;;;;;2.33;1.75;;;;;;;16.63;91.92;100527.25;5021857;28;20115;-88
2021/07/15 04:26:38;;;;;;;5.38;2.55;;;;;;;16.66;92.25;100526.28;5021113;28;20081;-87
2021/07/15 04:29:08;;;;;;;4.22;1.98;;;;;;;16.70;91.61;100526.13;5019844;28;20078;-87
2021/07/15 04:32:07;;;;;;;8.02;1.98;;;;;;;16.72;91.76;100530.50;5007311;28;20052;-88
2021/07/15 04:34:37;;;;;;;6.85;1.92;;;;;;;16.74;91.55;100541.84;5040999;28;20052;-89
2021/07/15 04:37:07;;;;;;;7.97;2.25;;;;;;;16.72;91.75;100533.97;5023222;28;20065;-88
2021/07/15 04:39:50;;;;;;;;;;;;;;;;;;;;;
2021/07/15 04:42:58;;;;;;;4.33;1.90;;;;;;;16.76;91.34;100542.66;4935287;28;20054;-88
2021/07/15 04:45:36;;;;;;;3.03;1.88;;;;;;;16.78;91.48;100536.41;5004621;28;20060;-88
2021/07/15 04:48:07;;;;;;;7.75;2.47;;;;;;;16.81;91.13;100538.94;5023733;28;20044;-87
2021/07/15 04:50:39;;;;;;;4.38;1.90;;;;;;;16.84;90.86;100540.59;5006445;28;20135;-89
2021/07/15 04:53:15;;;;;;;3.65;2.00;;;;;;;16.86;90.92;100544.06;5039889;28;20040;-88
2021/07/15 04:55:48;;;;;;;4.50;2.45;;;;;;;16.88;91.07;100542.22;5022906;28;20056;-88
2021/07/15 04:58:27;;;;;;;3.10;1.67;;;;;;;16.94;90.68;100538.53;5021341;28;20037;-88
2021/07/15 05:03:47;;;;;;;5.32;2.40;;;;;;;17.14;90.14;100527.19;5021947;28;20064;-89
2021/07/15 05:06:19;;;;;;;9.23;1.90;;;;;;;17.27;89.70;100525.78;5007321;28;20041;-89
2021/07/15 05:08:48;;;;;;;3.00;1.98;;;;;;;17.37;89.27;100518.34;5026078;28;20048;-88
2021/07/15 05:11:17;;;;;;;3.35;1.67;;;;;;;17.50;88.57;100532.81;5039776;28;20491;-89
2021/07/15 05:14:17;;;;;;;6.00;1.67;;;;;;;17.65;88.08;100522.53;5005894;28;20150;-88
2021/07/15 05:16:47;;;;;;;6.32;1.80;;;;;;;17.76;87.38;100517.66;4999295;28;20045;-88
2021/07/15 05:19:18;;;;;;;5.93;2.03;;;;;;;17.81;87.20;100517.50;5008361;28;20041;-87
2021/07/15 05:21:48;;;;;;;4.78;2.10;;;;;;;17.79;87.06;100519.34;5025498;28;20063;-89
2021/07/15 05:24:17;;;;;;;3.15;1.58;;;;;;;17.73;87.15;100515.16;5011625;28;20045;-88
2021/07/15 05:26:46;;;;;;;8.38;1.70;;;;;;;17.64;87.34;100521.69;5041281;28;20812;-86
2021/07/15 05:29:16;;;;;;;3.67;1.55;;;;;;;17.53;87.74;100519.47;5011004;28;20045;-88
2021/07/15 05:31:45;;;;;;;2.80;1.70;;;;;;;17.45;88.16;100523.34;5017918;28;21103;-87
2021/07/15 05:34:27;;;;;;;4.00;2.22;;;;;;;17.41;88.13;100524.41;5005679;28;20064;-88
2021/07/15 05:36:58;;;;;;;2.75;1.60;;;;;;;17.39;88.67;100527.09;5024231;28;20047;-87
2021/07/15 05:39:27;;;;;;;8.23;1.42;;;;;;;17.36;88.67;100520.16;5011075;28;20080;-87
2021/07/15 05:42:03;;;;;;;1.42;1.33;;;;;;;17.34;89.03;100521.13;5024162;28;20056;-87
2021/07/15 05:44:35;;;;;;;5.72;1.60;;;;;;;17.30;89.29;100516.84;5008538;28;20049;-87
2021/07/15 05:47:15;;;;;;;2.25;1.50;;;;;;;17.29;89.68;100518.66;5029400;28;20329;-87
2021/07/15 05:49:47;;;;;;;3.50;1.20;;;;;;;17.29;89.37;100518.66;5023637;28;20037;-88
2021/07/15 05:52:17;;;;;;;7.28;2.97;;;;;;;17.33;89.44;100524.69;5003251;28;20052;-88
2021/07/15 05:54:57;;;;;;;1.52;1.42;;;;;;;17.35;89.54;100521.06;5007147;28;20072;-87
2021/07/15 05:57:27;;;;;;;10.10;2.22;;;;;;;17.39;89.52;100523.59;5023771;28;20482;-86
2021/07/15 05:59:57;;;;;;;5.82;1.52;;;;;;;17.42;89.61;100523.47;5022823;28;20091;-88
2021/07/15 06:02:26;;;;;;;5.50;2.15;;;;;;;17.45;89.75;100528.63;5025408;28;20132;-88
2021/07/15 06:04:58;;;;;;;5.35;2.05;;;;;;;17.49;89.44;100527.59;5024896;28;20051;-86
2021/07/15 06:07:28;;;;;;;2.55;1.40;;;;;;;17.55;89.39;100547.66;5026727;28;20132;-88
2021/07/15 06:09:58;;;;;;;1.27;1.27;;;;;;;17.60;89.09;100543.03;5034404;28;20040;-89
2021/07/15 06:12:27;;;;;;;2.53;1.63;;;;;;;17.69;88.26;100540.00;5034657;28;20036;-89
2021/07/15 06:14:55;;;;;;;0.70;0.70;;;;;;;17.75;87.72;100546.88;5040975;28;20037;-90
2021/07/15 06:17:26;;;;;;;3.72;1.33;;;;;;;17.75;87.30;100544.22;5019513;28;20075;-89
2021/07/15 06:19:59;;;;;;;3.05;1.52;;;;;;;17.79;87.48;100549.31;5031144;28;20479;-88
2021/07/15 06:22:28;;;;;;;1.95;0.90;;;;;;;17.81;87.25;100551.91;5028926;28;20051;-89
2021/07/15 06:24:58;;;;;;;5.28;1.40;;;;;;;17.82;87.14;100548.31;5015025;28;20374;-87
2021/07/15 06:27:39;;;;;;;;;;;;;;;;;;;;;
2021/07/15 06:30:36;;;;;;;3.92;2.80;;;;;;;17.96;87.24;100546.00;5018634;28;20067;-88
2021/07/15 06:33:17;;;;;;;7.55;5.93;;;;;;;18.02;86.53;100545.75;5014171;28;20049;-88
2021/07/15 06:35:50;;;;;;;2.35;1.75;;;;;;;18.10;86.56;100545.44;5032054;28;20045;-86
2021/07/15 06:38:27;;;;;;;2.70;2.50;;;;;;;18.15;85.98;100543.44;5029552;28;20056;-87
2021/07/15 06:41:09;;;;;;;;;;;;;;;;;;;;;
2021/07/15 06:43:39;;;;;;;4.30;0.93;;;;;;;18.24;85.46;100546.63;5013364;28;20214;-88
2021/07/15 06:46:08;;;;;;;1.25;1.17;;;;;;;18.23;85.23;100548.41;5020428;28;20072;-90
2021/07/15 06:48:37;;;;;;;4.03;1.75;;;;;;;18.30;85.10;100551.66;5012291;28;20044;-88
2021/07/15 06:51:19;;;;;;;3.95;1.15;;;;;;;18.35;84.60;100561.16;5010503;28;20711;-87
2021/07/15 06:53:56;;;;;;;1.75;1.65;;;;;;;18.42;84.34;100561.75;5028874;28;20102;-87
2021/07/15 06:59:46;;;;;;;1.00;0.80;;;;;;;18.62;82.58;100552.91;5031619;28;20120;-88
2021/07/15 07:02:18;;;;;;;2.53;1.17;;;;;;;18.73;82.38;100555.09;5028381;28;20483;-88
2021/07/15 07:04:45;;;;;;;8.18;1.60;;;;;;;18.84;82.09;100557.28;5046708;28;20040;-88
2021/07/15 07:08:15;;;;;;;1.17;0.80;;;;;;;18.95;81.32;100562.13;5024406;28;20427;-87
2021/07/15 07:11:06;;;;;;;0.40;0.40;;;;;;;19.01;80.88;100564.50;5025725;28;20048;-87
2021/07/15 07:17:18;;;;;;;0.88;0.63;;;;;;;19.25;79.51;100554.53;5021087;28;20049;-88
2021/07/15 07:20:16;;;;;;;1.95;0.98;;;;;;;19.43;78.19;100557.25;5012582;28;20075;-88
2021/07/15 07:23:36;;;;;;;;;;;;;;;;;;;;;
2021/07/15 07:26:37;;;;;;;0.50;0.50;;;;;;;19.90;74.76;100569.19;5028213;28;20060;-88
2021/07/15 07:29:38;;;;;;;2.33;1.10;;;;;;;20.48;72.48;100579.53;5028707;28;20053;-88
2021/07/15 07:32:05;;;;;;;1.42;0.55;;;;;;;21.35;70.47;100579.44;5003090;28;20060;-86
2021/07/15 07:34:38;;;;;;;0.75;0.70;;;;;;;22.22;67.34;100576.28;5039342;28;20049;-88
2021/07/15 07:37:07;;;;;;;3.60;0.77;;;;;;;23.04;64.62;100578.53;5021232;28;20352;-88
2021/07/15 07:39:36;;;;;;;3.08;0.77;;;;;;;23.54;62.84;100569.09;5013564;28;20049;-88
2021/07/15 07:42:38;;;;;;;1.00;0.60;;;;;;;23.55;61.30;100573.50;5045777;28;20048;-88
2021/07/15 07:45:09;;;;;;;0.40;0.40;;;;;;;23.31;62.52;100572.41;5027887;28;20083;-88
2021/07/15 07:47:39;;;;;;;0.88;0.68;;;;;;;23.08;62.99;100578.22;5014794;28;20511;-87
2021/07/15 07:50:18;;;;;;;0.30;0.30;;;;;;;22.90;61.78;100590.03;5011941;28;20094;-89
2021/07/15 07:53:00;;;;;;;;;;;;;;;;;;;;;
2021/07/15 07:55:29;;;;;;;1.38;0.30;;;;;;;22.46;62.05;100590.00;5042784;28;20040;-88
2021/07/15 07:57:58;;;;;;;0.65;0.45;;;;;;;22.41;62.39;100594.75;5009947;28;20057;-87
2021/07/15 08:00:28;;;;;;;0.10;0.10;;;;;;;22.37;62.24;100598.56;5013616;28;20060;-88
2021/07/15 08:02:58;;;;;;;1.00;0.40;;;;;;;22.40;61.96;100610.84;5011003;28;20052;-88
2021/07/15 08:05:38;;;;;;;0.40;0.30;;;;;;;22.55;61.53;100611.72;5024917;28;20043;-89
2021/07/15 08:08:39;;;;;;;0.55;0.35;;;;;;;22.79;60.28;100618.25;5013837;28;20126;-88
2021/07/15 08:11:20;;;;;;;0.57;0.57;;;;;;;23.39;58.88;100619.03;5036794;28;20053;-86
2021/07/15 08:13:58;;;;;;;1.27;0.40;;;;;;;23.71;58.23;100624.13;5026551;28;20048;-88
2021/07/15 08:16:28;;;;;;;0.50;0.50;;;;;;;24.18;57.02;100624.66;5006187;28;20041;-88
2021/07/15 08:18:57;;;;;;;0.70;0.20;;;;;;;24.65;55.49;100627.78;5027974;28;20045;-87
2021/07/15 08:21:27;;;;;;;4.38;3.58;;;;;;;25.57;53.41;100627.66;5009057;28;20059;-88
2021/07/15 08:23:55;;;;;;;0.93;0.68;;;;;;;26.49;50.15;100617.25;5027880;28;20040;-88
2021/07/15 08:26:27;;;;;;;0.50;0.50;;;;;;;27.53;47.78;100622.63;5026502;28;20064;-88
2021/07/15 08:29:06;;;;;;;2.17;0.50;;;;;;;28.41;44.28;100615.38;5026617;28;20052;-87
2021/07/15 08:31:48;;;;;;;0.22;0.20;;;;;;;29.01;44.04;100618.31;5010003;28;20094;-90
2021/07/15 08:34:17;;;;;;;0.88;0.65;;;;;;;29.44;42.55;100615.50;5012571;28;20133;-88
2021/07/15 08:36:47;;;;;;;1.85;0.40;;;;;;;30.15;41.06;100623.44;5030002;28;20045;-89
2021/07/15 08:39:16;;;;;;;0.45;0.32;;;;;;;30.68;39.85;100624.84;4998956;28;20056;-89
2021/07/15 08:41:48;;;;;;;2.38;0.28;;;;;;;31.16;38.75;100619.47;5027323;28;21053;-89
2021/07/15 08:44:30;;;;;;;;;;;;;;;;;;;;;
2021/07/15 08:47:09;;;;;;;0.50;0.50;;;;;;;30.72;38.82;100625.41;5005098;28;20079;-89
2021/07/15 08:49:48;;;;;;;2.05;0.63;;;;;;;29.94;40.31;100620.91;5031540;28;20087;-89
2021/07/15 08:52:18;;;;;;;1.10;0.50;;;;;;;29.46;41.35;100616.25;5030144;28;20096;-90
2021/07/15 08:55:00;;;;;;;1.38;0.57;;;;;;;29.48;41.06;100620.50;5017832;28;20078;-90
2021/07/15 08:57:53;;;;;;;;;;;;;;;;;;;;;
2021/07/15 09:00:35;;;;;;;0.73;0.73;;;;;;;28.37;42.43;100622.88;5027479;28;20052;-90
2021/07/15 09:03:15;;;;;;;1.65;0.85;;;;;;;27.67;44.26;100633.09;5013391;28;20522;-89
2021/07/15 09:05:59;;;;;;;0.50;0.50;;;;;;;27.17;45.64;100630.81;5026584;28;20052;-89
2021/07/15 09:08:35;;;;;;;0.40;0.30;;;;;;;26.71;46.38;100637.06;5015422;28;20049;-90
2021/07/15 09:11:16;;;;;;;0.70;0.70;;;;;;;26.14;47.66;100628.84;5026898;28;20053;-86
2021/07/15 09:13:45;;;;;;;1.40;0.60;;;;;;;25.79;48.20;100620.69;5029351;28;20049;-89
2021/07/15 09:16:25;;;;;;;1.40;0.45;;;;;;;25.61;49.06;100630.97;5001240;28;20056;-90
2021/07/15 09:19:05;;;;;;;0.73;0.50;;;;;;;25.25;49.80;100634.34;5032844;28;20119;-88
2021/07/15 09:21:38;;;;;;;1.15;0.40;;;;;;;25.12;50.02;100635.28;5031804;28;20048;-91
2021/07/15 09:24:35;;;;;;;;;;;;;;;24.83;50.83;100638.19;5036400;28;20494;-89
2021/07/15 09:27:26;;;;;;;4.03;1.17;;;;;;;24.63;51.47;100634.16;5036605;28;19963;-89
2021/07/15 09:30:28;;;;;;;1.00;0.50;;;;;;;24.51;51.80;100644.78;5020487;28;20056;-89
2021/07/15 09:33:06;;;;;;;0.85;0.40;;;;;;;24.51;52.06;100643.91;5029222;28;20731;-90
2021/07/15 09:35:39;;;;;;;0.40;0.40;;;;;;;24.49;51.93;100645.84;5055217;28;20071;-89
2021/07/15 09:38:39;;;;;;;0.30;0.30;;;;;;;24.32;52.60;100645.16;5023953;28;20120;-90
2021/07/15 09:41:19;;;;;;;1.45;0.32;;;;;;;24.24;52.06;100640.31;5045911;28;20044;-90
2021/07/15 09:43:49;;;;;;;0.50;0.50;;;;;;;25.21;50.25;100634.66;5044203;28;20056;-90
2021/07/15 09:46:19;;;;;;;0.25;0.25;;;;;;;27.09;45.30;100630.53;5039515;28;20892;-90
2021/07/15 09:49:16;;;;;;;0.57;0.57;;;;;;;28.96;40.00;100620.56;5036840;28;20045;-89
2021/07/15 09:51:46;;;;;;;0.30;0.30;;;;;;;30.78;37.53;100623.97;5038357;28;20156;-90
2021/07/15 09:54:17;;;;;;;1.80;0.30;;;;;;;31.96;34.67;100627.84;5033307;28;20049;-90
2021/07/15 09:56:48;;;;;;;0.52;0.40;;;;;;;32.76;33.57;100615.31;5034562;28;20045;-89
2021/07/15 09:59:22;;;;;;;1.30;0.35;;;;;;;33.56;32.54;100608.72;5044493;28;20052;-89
2021/07/15 10:01:57;;;;;;;2.05;0.40;;;;;;;34.69;30.49;100605.44;5029476;28;20338;-90
2021/07/15 10:04:28;;;;;;;2.00;0.70;;;;;;;35.53;28.14;100605.00;5039235;28;20103;-91
2021/07/15 10:07:09;;;;;;;0.38;0.20;;;;;;;36.48;27.93;100600.22;5016726;28;20048;-91
2021/07/15 10:09:47;;;;;;;0.98;0.40;;;;;;;36.06;28.65;100599.72;5018175;28;20045;-90
2021/07/15 10:12:55;;;;;;;3.22;0.57;;;;;;;34.33;30.06;100607.69;5031450;28;20044;-90
2021/07/15 10:15:35;;;;;;;2.28;0.60;;;;;;;34.30;30.31;100617.00;5023353;28;20100;-89
2021/07/15 10:18:07;;;;;;;0.32;0.32;;;;;;;35.24;29.65;100614.66;5048807;28;20060;-89
2021/07/15 10:20:45;;;;;;;0.88;0.40;;;;;;;35.71;28.26;100607.44;5013017;28;20073;-88
2021/07/15 10:23:35;;;;;;;1.15;0.30;;;;;;;35.46;28.36;100625.78;5037125;28;20032;-88
2021/07/15 10:26:18;;;;;;;1.35;0.30;;;;;;;36.15;28.04;100626.91;5015105;28;20091;-90
2021/07/15 10:28:49;;;;;;;0.32;0.30;;;;;;;37.41;26.60;100622.53;5032950;28;20049;-88
2021/07/15 10:31:27;;;;;;;1.45;0.40;;;;;;;38.76;24.64;100618.38;5012782;28;20044;-89
2021/07/15 10:33:59;;;;;;;0.20;0.20;;;;;;;39.46;23.96;100612.84;5035390;28;20064;-91
2021/07/15 10:36:28;;;;;;;0.60;0.43;;;;;;;39.67;23.25;100631.06;5033642;28;20055;-89
2021/07/15 10:39:05;;;;;;;0.63;0.30;;;;;;;39.81;22.67;100637.44;5021320;28;20044;-91
2021/07/15 10:41:46;;;;;;;0.30;0.30;;;;;;;39.93;22.07;100645.88;5035816;28;20053;-89
2021/07/15 10:44:25;;;;;;;0.20;0.20;;;;;;;39.60;22.54;100646.63;5017587;28;20064;-91
2021/07/15 10:47:08;;;;;;;0.57;0.20;;;;;;;39.49;21.85;100646.16;4993759;28;20067;-91
2021/07/15 10:52:27;;;;;;;2.28;0.30;;;;;;;40.57;21.55;100638.97;5029702;28;20096;-91
2021/07/15 10:54:57;;;;;;;1.15;0.40;;;;;;;41.37;20.49;100628.84;5032621;28;20041;-91
2021/07/15 10:57:37;;;;;;;0.30;0.22;;;;;;;41.47;20.17;100635.59;5028540;28;20056;-89
2021/07/15 11:03:29;;;;;;;0.20;0.20;;;;;;;43.73;18.35;100643.88;5011114;28;20045;-90
2021/07/15 11:06:05;;;;;;;1.20;0.35;;;;;;;44.27;17.83;100649.41;5018587;28;20041;-91
2021/07/15 11:08:49;;;;;;;1.35;0.20;;;;;;;43.59;17.79;100647.91;5031009;28;20041;-91
2021/07/15 11:12:36;;;;;;;0.38;0.38;;;;;;;40.92;20.38;100655.16;5010334;28;20072;-89
2021/07/15 11:15:17;;;;;;;0.40;0.40;;;;;;;37.77;23.93;100653.66;4915169;29;20513;-90
2021/07/15 11:17:50;;;;;;;0.38;0.38;;;;;;;35.69;26.50;100653.06;4916941;28;20058;-89
2021/07/15 11:20:44;;;;;;;0.50;0.47;;;;;;;34.26;28.47;100654.56;4975938;28;20141;-90
2021/07/15 11:23:17;;;;;;;1.85;0.60;;;;;;;33.31;30.12;100658.34;5010953;28;20800;-90
2021/07/15 11:25:47;;;;;;;0.60;0.60;;;;;;;33.97;29.44;100652.31;5009402;28;20053;-90
2021/07/15 11:28:16;;;;;;;0.80;0.57;;;;;;;35.90;26.79;100648.88;4993400;28;20474;-89
2021/07/15 11:30:47;;;;;;;0.95;0.50;;;;;;;37.84;24.49;100648.28;4998552;28;20052;-91
2021/07/15 11:33:19;;;;;;;2.85;0.47;;;;;;;39.45;22.31;100647.63;5008268;28;20067;-90
2021/07/15 11:36:15;;;;;;;2.08;0.40;;;;;;;39.92;21.63;100657.88;5011717;28;20091;-91
2021/07/15 11:39:07;;;;;;;0.80;0.45;;;;;;;37.78;23.82;100663.50;4991625;28;20415;-91
2021/07/15 11:42:25;;;;;;;0.40;0.40;;;;;;;35.78;26.66;100659.31;4992414;28;20057;-90
2021/07/15 11:45:15;;;;;;;0.50;0.35;;;;;;;34.04;28.62;100656.06;4994527;28;20569;-90
2021/07/15 11:48:07;;;;;;;1.17;0.40;;;;;;;33.27;29.80;100658.84;4991857;28;20053;-90
2021/07/15 11:50:38;;;;;;;0.60;0.57;;;;;;;34.60;28.13;100650.81;5021775;28;20077;-89
2021/07/15 11:53:29;;;;;;;1.13;0.98;;;;;;;36.80;25.46;100655.47;5007761;28;20055;-90
2021/07/15 11:56:10;;;;;;;;;;;;;;;;;;;;;
2021/07/15 12:01:38;;;;;;;0.52;0.43;;;;;;;38.56;22.78;100665.56;4976604;28;20606;-89
2021/07/15 12:04:19;;;;;;;0.80;0.40;;;;;;;39.03;22.42;100663.19;4989802;28;20056;-90
2021/07/15 12:06:50;;;;;;;0.65;0.40;;;;;;;40.22;20.46;100660.28;4990437;28;20076;-90
2021/07/15 12:09:28;;;;;;;2.05;0.40;;;;;;;41.02;19.57;100663.00;4987598;28;20053;-90
2021/07/15 12:11:59;;;;;;;0.95;0.45;;;;;;;40.01;20.96;100668.47;5001440;28;20554;-90
2021/07/15 12:14:28;;;;;;;2.22;0.80;;;;;;;38.32;23.12;100675.06;5004790;28;20074;-90
2021/07/15 12:16:58;;;;;;;0.85;0.70;;;;;;;36.87;24.41;100672.81;4964659;28;20045;-89
2021/07/15 12:19:28;;;;;;;0.73;0.73;;;;;;;35.80;25.80;100665.44;5002739;28;20057;-90
2021/07/15 12:22:00;;;;;;;0.45;0.40;;;;;;;34.85;26.78;100671.72;4989925;28;20045;-89
2021/07/15 12:24:27;;;;;;;1.33;0.60;;;;;;;33.70;28.45;100664.25;5009945;28;20049;-90
2021/07/15 12:26:58;;;;;;;1.42;0.45;;;;;;;32.26;30.89;100668.25;5027796;28;20069;-90
2021/07/15 12:29:28;;;;;;;0.67;0.60;;;;;;;31.50;32.34;100670.28;5009121;28;20213;-90
2021/07/15 12:31:58;;;;;;;0.52;0.52;;;;;;;31.26;33.11;100668.09;4997864;28;20336;-91
2021/07/15 12:34:28;;;;;;;0.60;0.60;;;;;;;31.24;33.11;100675.50;4996038;28;20037;-90
2021/07/15 12:36:57;;;;;;;0.95;0.60;;;;;;;31.17;33.11;100673.41;4996198;28;20049;-90
2021/07/15 12:39:27;;;;;;;0.63;0.60;;;;;;;30.88;33.61;100668.03;4980387;28;20077;-90
2021/07/15 12:41:59;;;;;;;1.20;1.10;;;;;;;30.33;34.41;100671.34;5008744;28;20436;-89
2021/07/15 12:44:28;;;;;;;1.63;0.57;;;;;;;30.28;34.31;100676.31;5016092;28;20049;-90
2021/07/15 12:47:29;;;;;;;0.77;0.50;;;;;;;30.76;33.82;100670.06;5026548;28;20052;-92
2021/07/15 12:50:07;;;;;;;1.80;1.02;;;;;;;31.48;32.81;100669.56;5019417;28;20114;-89
2021/07/15 12:52:38;;;;;;;0.60;0.60;;;;;;;31.65;32.50;100667.94;5001714;28;20077;-90
2021/07/15 12:55:39;;;;;;;1.70;0.65;;;;;;;31.01;33.49;100671.25;4994647;28;20057;-89
2021/07/15 12:58:09;;;;;;;0.47;0.47;;;;;;;30.77;34.17;100674.47;5010238;28;20092;-90
2021/07/15 13:00:49;;;;;;;1.17;0.82;;;;;;;30.54;34.82;100664.97;4993938;28;20046;-89
2021/07/15 13:03:40;;;;;;;1.20;0.60;;;;;;;30.57;35.13;100667.38;4992469;28;20049;-88
2021/07/15 13:06:09;;;;;;;1.08;0.70;;;;;;;30.72;34.42;100673.22;5021692;28;21190;-89
2021/07/15 13:08:49;;;;;;;0.60;0.60;;;;;;;30.64;34.36;100671.22;5009834;28;20065;-89
2021/07/15 13:17:56;;;;;;;0.45;0.30;;;;;;;30.25;34.83;100669.38;4991458;28;20064;-89
2021/07/15 13:20:55;;;;;;;1.23;0.30;;;;;;;29.91;35.44;100669.75;4994661;28;20060;-90
2021/07/15 13:23:28;;;;;;;0.90;0.50;;;;;;;29.94;35.27;100669.47;5013631;28;20041;-89
2021/07/15 13:26:00;;;;;;;0.60;0.60;;;;;;;30.16;34.89;100672.91;5008375;28;20144;-89
2021/07/15 13:28:38;;;;;;;0.70;0.70;;;;;;;31.14;33.17;100659.31;4992009;28;20038;-90
2021/07/15 13:31:50;;;;;;;;;;;;;;;;;;;;;
2021/07/15 13:34:37;;;;;;;0.73;0.60;;;;;;;34.99;27.87;100656.56;5012527;28;20234;-89
2021/07/15 13:37:06;;;;;;;1.55;1.20;;;;;;;36.01;26.12;100663.94;5014613;28;20052;-88
2021/07/15 13:39:45;;;;;;;0.63;0.40;;;;;;;37.30;25.22;100669.44;5008085;28;20052;-89
2021/07/15 13:42:39;;;;;;;1.13;0.38;;;;;;;38.90;23.00;100658.47;4995884;28;20061;-90
2021/07/15 13:45:17;;;;;;;0.50;0.50;;;;;;;40.45;21.45;100674.41;4992789;28;20055;-90